createdAt,value
2024-01-05T00:08:23.764Z,0
2024-01-05T00:12:14.911Z,0
2024-01-05T00:18:17.058Z,0
2024-01-05T00:24:14.630Z,0
2024-01-05T00:27:15.967Z,0
2024-01-05T00:33:14.993Z,0
2024-01-05T00:36:14.691Z,0
2024-01-05T00:39:15.344Z,0
2024-01-05T00:42:16.084Z,0
2024-01-05T00:48:17.088Z,0
2024-01-05T00:56:44.942Z,0
2024-01-05T01:01:16.898Z,0
2024-01-05T01:03:06.288Z,0
2024-01-05T01:09:03.789Z,0
2024-01-05T01:12:04.398Z,0
2024-01-05T01:18:04.411Z,0
2024-01-05T01:24:04.426Z,0
2024-01-05T01:27:05.433Z,0
2024-01-05T01:33:16.688Z,0
2024-01-05T01:36:17.454Z,0
2024-01-05T01:42:17.690Z,0
2024-01-05T01:48:19.683Z,0
2024-01-05T01:51:18.646Z,0
2024-01-05T01:57:21.305Z,0
2024-01-05T02:09:02.314Z,0
2024-01-05T02:15:02.558Z,0
2024-01-05T02:18:04.424Z,0
2024-01-05T02:24:03.853Z,0
2024-01-05T02:30:24.474Z,0
2024-01-05T02:33:05.305Z,0
2024-01-05T02:39:16.456Z,0
2024-01-05T02:45:18.897Z,0
2024-01-05T02:48:18.315Z,0
2024-01-05T02:54:19.924Z,0
2024-01-05T03:00:01.511Z,0
2024-01-05T03:03:01.363Z,0
2024-01-05T03:09:03.743Z,0
2024-01-05T03:12:01.845Z,0
2024-01-05T03:15:02.460Z,0
2024-01-05T03:18:04.249Z,0
2024-01-05T03:24:02.485Z,0
2024-01-05T03:27:03.430Z,0
2024-01-05T03:30:02.297Z,0
2024-01-05T03:33:02.825Z,0
2024-01-05T03:36:03.157Z,0
2024-01-05T03:39:02.871Z,0
2024-01-05T03:42:03.148Z,0
2024-01-05T03:45:03.793Z,0
2024-01-05T03:48:03.323Z,0
2024-01-05T03:51:05.214Z,0
2024-01-05T03:54:06.324Z,0
2024-01-05T03:57:04.252Z,0
2024-01-05T04:03:01.518Z,0
2024-01-05T04:09:00.108Z,0
2024-01-05T04:12:00.861Z,0
2024-01-05T04:18:00.813Z,0
2024-01-05T04:21:01.220Z,0
2024-01-05T04:24:03.380Z,0
2024-01-05T04:27:01.353Z,0
2024-01-05T04:33:03.613Z,0
2024-01-05T04:39:01.911Z,0
2024-01-05T04:42:02.777Z,0
2024-01-05T04:48:03.996Z,0
2024-01-05T04:54:02.688Z,0
2024-01-05T04:57:03.164Z,0
2024-01-05T05:09:01.924Z,0
2024-01-05T05:15:00.258Z,0
2024-01-05T05:18:01.506Z,0
2024-01-05T05:24:00.312Z,0
2024-01-05T05:30:00.655Z,0
2024-01-05T05:33:00.995Z,0
2024-01-05T05:39:03.164Z,0
2024-01-05T05:45:03.813Z,0
2024-01-05T05:48:02.152Z,0
2024-01-05T05:54:02.066Z,0
2024-01-05T05:59:58.370Z,0
2024-01-05T06:02:58.830Z,0
2024-01-05T06:08:58.621Z,0
2024-01-05T06:11:59.081Z,0
2024-01-05T06:15:00.171Z,0
2024-01-05T06:17:59.002Z,0
2024-01-05T06:24:02.551Z,0
2024-01-05T06:26:59.601Z,0
2024-01-05T06:29:59.804Z,0
2024-01-05T06:33:00.619Z,0
2024-01-05T06:39:01.012Z,0
2024-01-05T06:42:02.887Z,0
2024-01-05T06:45:00.684Z,0
2024-01-05T06:48:01.286Z,0
2024-01-05T06:51:06.723Z,0
2024-01-05T06:54:00.833Z,0
2024-01-05T06:57:00.924Z,0
2024-01-05T07:02:56.494Z,0
2024-01-05T07:08:57.273Z,0
2024-01-05T07:11:59.291Z,0
2024-01-05T07:17:57.966Z,0
2024-01-05T07:23:57.560Z,0
2024-01-05T07:26:58.026Z,0.1
2024-01-05T07:32:58.473Z,0.3
2024-01-05T07:38:59.378Z,0.5
2024-01-05T07:41:59.865Z,0.5
2024-01-05T07:48:02.284Z,1.5
2024-01-05T07:54:00.769Z,1.7
2024-01-05T07:57:02.609Z,2.3
2024-01-05T08:02:56.115Z,2.8
2024-01-05T08:08:55.770Z,3.1
2024-01-05T08:11:56.502Z,3.6
2024-01-05T08:17:56.704Z,5.7
2024-01-05T08:23:57.359Z,8.4
2024-01-05T08:26:59.105Z,10.2
2024-01-05T08:32:58.784Z,12.8
2024-01-05T08:38:58.177Z,13.1
2024-01-05T08:42:19.555Z,14.2
2024-01-05T08:47:58.577Z,16
2024-01-05T08:54:00.789Z,15.2
2024-01-05T08:56:58.829Z,16.9
2024-01-05T09:02:55.821Z,17.4
2024-01-05T09:08:54.177Z,20.5
2024-01-05T09:11:55.031Z,22.2
2024-01-05T09:17:54.845Z,29.8
2024-01-05T09:23:57.167Z,32.4
2024-01-05T09:26:55.308Z,27
2024-01-05T09:32:56.595Z,35.6
2024-01-05T09:38:56.785Z,33
2024-01-05T09:41:57.643Z,33.1
2024-01-05T09:47:56.371Z,34.3
2024-01-05T09:53:56.153Z,41.2
2024-01-05T09:56:56.537Z,41.8
2024-01-05T10:08:54.234Z,50.1
2024-01-05T10:14:54.298Z,55.6
2024-01-05T10:17:54.917Z,60
2024-01-05T10:23:53.676Z,38.9
2024-01-05T10:29:54.338Z,24.7
2024-01-05T10:32:54.599Z,31
2024-01-05T10:38:56.239Z,45
2024-01-05T10:41:54.254Z,31.3
2024-01-05T10:44:54.817Z,25.7
2024-01-05T10:47:57.906Z,22.7
2024-01-05T10:53:54.736Z,29
2024-01-05T10:59:53.513Z,39.5
2024-01-05T11:02:54.201Z,37.8
2024-01-05T11:08:54.398Z,27.1
2024-01-05T11:11:54.768Z,26.8
2024-01-05T11:14:55.415Z,31.6
2024-01-05T11:17:56.162Z,55.9
2024-01-05T11:23:54.565Z,71.8
2024-01-05T11:29:55.017Z,43.2
2024-01-05T11:32:56.201Z,24.4
2024-01-05T11:35:57.392Z,31.9
2024-01-05T11:38:55.492Z,33.8
2024-01-05T11:44:57.987Z,29.3
2024-01-05T11:47:56.178Z,29
2024-01-05T11:53:57.282Z,27.9
2024-01-05T11:56:55.836Z,24.9
2024-01-05T12:02:54.771Z,25.8
2024-01-05T12:08:54.802Z,29.7
2024-01-05T12:11:57.243Z,24.4
2024-01-05T12:17:56.962Z,25.6
2024-01-05T12:20:55.391Z,18.8
2024-01-05T12:24:00.121Z,17.2
2024-01-05T12:26:55.016Z,17.7
2024-01-05T12:32:57.695Z,16.4
2024-01-05T12:38:56.033Z,12.5
2024-01-05T12:42:01.083Z,14.6
2024-01-05T12:47:56.516Z,16
2024-01-05T12:53:56.141Z,14.9
2024-01-05T12:56:56.448Z,10.5
2024-01-05T13:02:54.713Z,6
2024-01-05T13:08:55.667Z,3.6
2024-01-05T13:11:57.552Z,4.2
2024-01-05T13:17:56.009Z,11.9
2024-01-05T13:23:55.674Z,21.1
2024-01-05T13:26:56.172Z,22.1
2024-01-05T13:32:56.138Z,25.4
2024-01-05T13:38:57.632Z,26.3
2024-01-05T13:41:55.841Z,26.3
2024-01-05T13:47:57.002Z,33.6
2024-01-05T13:53:56.261Z,29.8
2024-01-05T13:56:56.878Z,23.9
2024-01-05T14:02:53.763Z,19.6
2024-01-05T14:08:56.345Z,25.1
2024-01-05T14:11:54.210Z,22.1
2024-01-05T14:17:56.789Z,13.7
2024-01-05T14:23:54.975Z,12
2024-01-05T14:32:55.778Z,7.8
2024-01-05T14:38:55.652Z,10.2
2024-01-05T14:42:00.032Z,7
2024-01-05T14:47:58.134Z,8.3
2024-01-05T14:53:57.971Z,3.5
2024-01-05T14:56:56.323Z,2.6
2024-01-05T15:08:54.850Z,2.4
2024-01-05T15:14:57.137Z,1
2024-01-05T15:17:55.380Z,1
2024-01-05T15:23:56.457Z,0.7
2024-01-05T15:29:56.173Z,0.5
2024-01-05T15:32:58.399Z,0.4
2024-01-05T15:38:56.536Z,0.4
2024-01-05T15:44:59.001Z,0.2
2024-01-05T15:47:57.926Z,0.1
2024-01-05T15:53:59.666Z,0
2024-01-05T15:56:57.740Z,0
2024-01-05T16:02:54.779Z,0
2024-01-05T16:05:55.654Z,0
2024-01-05T16:08:55.437Z,0
2024-01-05T16:11:56.158Z,0
2024-01-05T16:17:56.112Z,0
2024-01-05T16:23:56.450Z,0
2024-01-05T16:26:57.139Z,0
2024-01-05T16:29:58.077Z,0
2024-01-05T16:32:58.778Z,0
2024-01-05T16:38:57.914Z,0
2024-01-05T16:41:57.547Z,0
2024-01-05T16:44:57.811Z,0
2024-01-05T16:47:58.882Z,0
2024-01-05T16:53:57.290Z,0
2024-01-05T16:56:57.733Z,0
2024-01-05T17:02:53.003Z,0
2024-01-05T17:05:53.410Z,0
2024-01-05T17:08:53.812Z,0
2024-01-05T17:11:54.166Z,0
2024-01-05T17:17:53.780Z,0
2024-01-05T17:23:53.449Z,0
2024-01-05T17:26:54.723Z,0
2024-01-05T17:32:53.778Z,0
2024-01-05T17:38:54.112Z,0
2024-01-05T17:41:54.364Z,0
2024-01-05T17:47:56.928Z,0
2024-01-05T17:53:54.954Z,0
2024-01-05T17:56:56.831Z,0
2024-01-05T18:02:53.297Z,0
2024-01-05T18:08:52.795Z,0
2024-01-05T18:11:53.112Z,0
2024-01-05T18:17:54.066Z,0
2024-01-05T18:23:54.590Z,0
2024-01-05T18:26:53.824Z,0
2024-01-05T18:32:54.903Z,0
2024-01-05T18:38:54.510Z,0
2024-01-05T18:41:57.751Z,0
2024-01-05T18:47:55.158Z,0
2024-01-05T18:53:57.626Z,0
2024-01-05T18:56:55.313Z,0
2024-01-05T19:08:53.660Z,0
2024-01-05T19:11:54.374Z,0
2024-01-05T19:17:54.472Z,0
2024-01-05T19:23:56.912Z,0
2024-01-05T19:26:55.454Z,0
2024-01-05T19:32:55.799Z,0
2024-01-05T19:38:57.617Z,0
2024-01-05T19:47:57.285Z,0
2024-01-05T19:53:56.732Z,0
2024-01-05T19:56:57.224Z,0
2024-01-05T20:08:53.789Z,0
2024-01-05T20:14:53.663Z,0
2024-01-05T20:17:54.593Z,0
2024-01-05T20:23:54.206Z,0
2024-01-05T20:29:57.346Z,0
2024-01-05T20:32:55.107Z,0
2024-01-05T20:38:59.098Z,0
2024-01-05T20:45:00.238Z,0
2024-01-05T20:47:58.686Z,0
2024-01-05T20:53:58.421Z,0
2024-01-05T20:59:53.488Z,0
2024-01-05T21:02:53.653Z,0
2024-01-05T21:08:53.915Z,0
2024-01-05T21:11:53.952Z,0
2024-01-05T21:17:56.620Z,0
2024-01-05T21:23:55.186Z,0
2024-01-05T21:26:55.375Z,0
2024-01-05T21:32:59.161Z,0
2024-01-05T21:38:55.236Z,0
2024-01-05T21:41:55.920Z,0
2024-01-05T21:47:55.607Z,0
2024-01-05T21:53:56.800Z,0
2024-01-05T21:56:55.563Z,0
2024-01-05T22:02:53.452Z,0
2024-01-05T22:08:53.477Z,0
2024-01-05T22:11:54.129Z,0
2024-01-05T22:17:53.192Z,0
2024-01-05T22:23:57.194Z,0
2024-01-05T22:26:54.053Z,0
2024-01-05T22:32:55.742Z,0
2024-01-05T22:38:56.968Z,0
2024-01-05T22:41:55.752Z,0
2024-01-05T22:47:54.224Z,0
2024-01-05T22:53:53.696Z,0
2024-01-05T23:00:09.878Z,0
2024-01-05T23:02:53.753Z,0
2024-01-05T23:08:54.719Z,0
2024-01-05T23:11:55.034Z,0
2024-01-05T23:17:53.802Z,0
2024-01-05T23:23:53.612Z,0
2024-01-05T23:26:54.515Z,0
2024-01-05T23:32:54.384Z,0
2024-01-05T23:38:56.686Z,0
2024-01-05T23:41:54.585Z,0
2024-01-05T23:47:56.120Z,0
2024-01-05T23:53:54.892Z,0
2024-01-05T23:56:55.611Z,0
